sensor_id;sensor_type;location;lat;lon;timestamp;temperature;humidity
18809;DHT22;9532;54.322;10.116;2022-11-15T00:00:10;18.90;76.10
18809;DHT22;9532;54.322;10.116;2022-11-15T00:02:37;18.80;76.10
18809;DHT22;9532;54.322;10.116;2022-11-15T00:05:05;18.80;76.10
18809;DHT22;9532;54.322;10.116;2022-11-15T00:07:32;18.80;76.00
18809;DHT22;9532;54.322;10.116;2022-11-15T00:10:01;18.80;76.00
18809;DHT22;9532;54.322;10.116;2022-11-15T00:12:28;18.80;75.90
18809;DHT22;9532;54.322;10.116;2022-11-15T00:14:55;18.80;75.90
18809;DHT22;9532;54.322;10.116;2022-11-15T00:17:23;18.80;75.90
18809;DHT22;9532;54.322;10.116;2022-11-15T00:19:50;18.80;75.80
18809;DHT22;9532;54.322;10.116;2022-11-15T00:22:17;18.80;75.80
18809;DHT22;9532;54.322;10.116;2022-11-15T00:24:44;18.80;75.70
18809;DHT22;9532;54.322;10.116;2022-11-15T00:27:13;18.80;75.70
18809;DHT22;9532;54.322;10.116;2022-11-15T00:29:41;18.80;75.70
18809;DHT22;9532;54.322;10.116;2022-11-15T00:32:09;18.80;75.60
18809;DHT22;9532;54.322;10.116;2022-11-15T00:34:36;18.80;75.60
18809;DHT22;9532;54.322;10.116;2022-11-15T00:37:03;18.70;75.50
18809;DHT22;9532;54.322;10.116;2022-11-15T00:39:31;18.70;75.50
18809;DHT22;9532;54.322;10.116;2022-11-15T00:41:58;18.70;75.50
18809;DHT22;9532;54.322;10.116;2022-11-15T00:44:27;18.70;75.40
18809;DHT22;9532;54.322;10.116;2022-11-15T00:46:54;18.70;75.50
18809;DHT22;9532;54.322;10.116;2022-11-15T00:49:21;18.70;75.40
18809;DHT22;9532;54.322;10.116;2022-11-15T00:51:49;18.70;75.40
18809;DHT22;9532;54.322;10.116;2022-11-15T00:54:16;18.70;75.40
18809;DHT22;9532;54.322;10.116;2022-11-15T00:56:43;18.70;75.40
18809;DHT22;9532;54.322;10.116;2022-11-15T00:59:10;18.70;75.40
18809;DHT22;9532;54.322;10.116;2022-11-15T01:01:39;18.70;75.30
18809;DHT22;9532;54.322;10.116;2022-11-15T01:04:06;18.70;75.30
18809;DHT22;9532;54.322;10.116;2022-11-15T01:06:33;18.70;75.30
18809;DHT22;9532;54.322;10.116;2022-11-15T01:09:01;18.60;75.20
18809;DHT22;9532;54.322;10.116;2022-11-15T01:11:28;18.70;75.30
18809;DHT22;9532;54.322;10.116;2022-11-15T01:13:55;18.70;75.20
18809;DHT22;9532;54.322;10.116;2022-11-15T01:16:23;18.70;75.20
18809;DHT22;9532;54.322;10.116;2022-11-15T01:18:51;18.70;75.20
18809;DHT22;9532;54.322;10.116;2022-11-15T01:21:19;18.70;76.10
18809;DHT22;9532;54.322;10.116;2022-11-15T01:23:46;18.70;75.20
18809;DHT22;9532;54.322;10.116;2022-11-15T01:26:15;18.70;75.20
18809;DHT22;9532;54.322;10.116;2022-11-15T01:28:42;18.60;75.20
18809;DHT22;9532;54.322;10.116;2022-11-15T01:31:13;18.60;75.20
18809;DHT22;9532;54.322;10.116;2022-11-15T01:33:40;18.70;75.20
18809;DHT22;9532;54.322;10.116;2022-11-15T01:36:12;18.60;75.10
18809;DHT22;9532;54.322;10.116;2022-11-15T01:38:39;18.60;75.10
18809;DHT22;9532;54.322;10.116;2022-11-15T01:41:11;18.60;75.10
18809;DHT22;9532;54.322;10.116;2022-11-15T01:43:39;18.60;75.10
18809;DHT22;9532;54.322;10.116;2022-11-15T01:46:23;18.60;75.00
18809;DHT22;9532;54.322;10.116;2022-11-15T01:48:53;18.60;75.00
18809;DHT22;9532;54.322;10.116;2022-11-15T01:51:25;18.60;75.00
18809;DHT22;9532;54.322;10.116;2022-11-15T01:53:55;18.60;75.00
18809;DHT22;9532;54.322;10.116;2022-11-15T01:56:27;18.60;75.00
18809;DHT22;9532;54.322;10.116;2022-11-15T01:58:58;18.60;75.00
18809;DHT22;9532;54.322;10.116;2022-11-15T02:01:26;18.60;75.00
18809;DHT22;9532;54.322;10.116;2022-11-15T02:03:59;18.60;75.00
18809;DHT22;9532;54.322;10.116;2022-11-15T02:06:28;18.60;75.00
18809;DHT22;9532;54.322;10.116;2022-11-15T02:08:56;18.60;75.00
18809;DHT22;9532;54.322;10.116;2022-11-15T02:11:24;18.50;74.90
18809;DHT22;9532;54.322;10.116;2022-11-15T02:13:51;18.60;75.00
18809;DHT22;9532;54.322;10.116;2022-11-15T02:16:27;18.60;75.00
18809;DHT22;9532;54.322;10.116;2022-11-15T02:19:04;18.50;74.90
18809;DHT22;9532;54.322;10.116;2022-11-15T02:21:43;18.50;74.90
18809;DHT22;9532;54.322;10.116;2022-11-15T02:30:34;18.50;74.90
18809;DHT22;9532;54.322;10.116;2022-11-15T02:33:10;18.50;74.80
18809;DHT22;9532;54.322;10.116;2022-11-15T02:35:45;18.50;74.80
18809;DHT22;9532;54.322;10.116;2022-11-15T02:38:19;18.50;74.80
18809;DHT22;9532;54.322;10.116;2022-11-15T02:40:58;18.50;74.80
18809;DHT22;9532;54.322;10.116;2022-11-15T02:43:30;18.50;74.70
18809;DHT22;9532;54.322;10.116;2022-11-15T02:46:20;18.50;74.80
18809;DHT22;9532;54.322;10.116;2022-11-15T02:49:11;18.50;74.80
18809;DHT22;9532;54.322;10.116;2022-11-15T02:51:39;18.50;74.70
18809;DHT22;9532;54.322;10.116;2022-11-15T02:54:12;18.50;74.70
18809;DHT22;9532;54.322;10.116;2022-11-15T02:56:39;18.50;74.80
18809;DHT22;9532;54.322;10.116;2022-11-15T02:59:19;18.50;74.70
18809;DHT22;9532;54.322;10.116;2022-11-15T03:02:01;18.50;74.70
18809;DHT22;9532;54.322;10.116;2022-11-15T03:04:37;18.50;74.70
18809;DHT22;9532;54.322;10.116;2022-11-15T03:07:12;18.50;74.70
18809;DHT22;9532;54.322;10.116;2022-11-15T03:09:44;18.50;74.70
18809;DHT22;9532;54.322;10.116;2022-11-15T03:12:20;18.40;74.60
18809;DHT22;9532;54.322;10.116;2022-11-15T03:14:55;18.40;74.60
18809;DHT22;9532;54.322;10.116;2022-11-15T03:17:27;18.40;74.60
18809;DHT22;9532;54.322;10.116;2022-11-15T03:19:57;18.50;74.60
18809;DHT22;9532;54.322;10.116;2022-11-15T03:22:28;18.50;74.60
18809;DHT22;9532;54.322;10.116;2022-11-15T03:25:00;18.40;74.50
18809;DHT22;9532;54.322;10.116;2022-11-15T03:27:30;18.50;74.60
18809;DHT22;9532;54.322;10.116;2022-11-15T03:30:02;18.50;74.60
18809;DHT22;9532;54.322;10.116;2022-11-15T03:32:35;18.40;74.50
18809;DHT22;9532;54.322;10.116;2022-11-15T03:35:06;18.40;74.50
18809;DHT22;9532;54.322;10.116;2022-11-15T03:37:39;18.40;74.50
18809;DHT22;9532;54.322;10.116;2022-11-15T03:40:08;18.50;74.50
18809;DHT22;9532;54.322;10.116;2022-11-15T03:42:39;18.40;74.50
18809;DHT22;9532;54.322;10.116;2022-11-15T03:45:14;18.40;74.50
18809;DHT22;9532;54.322;10.116;2022-11-15T03:47:47;18.40;74.50
18809;DHT22;9532;54.322;10.116;2022-11-15T03:50:18;18.40;74.50
18809;DHT22;9532;54.322;10.116;2022-11-15T03:52:47;18.40;74.50
18809;DHT22;9532;54.322;10.116;2022-11-15T03:55:17;18.40;74.50
18809;DHT22;9532;54.322;10.116;2022-11-15T03:57:47;18.40;74.50
18809;DHT22;9532;54.322;10.116;2022-11-15T04:00:15;18.40;74.50
18809;DHT22;9532;54.322;10.116;2022-11-15T04:02:44;18.40;74.50
18809;DHT22;9532;54.322;10.116;2022-11-15T04:05:11;18.40;74.60
18809;DHT22;9532;54.322;10.116;2022-11-15T04:07:39;18.40;74.50
18809;DHT22;9532;54.322;10.116;2022-11-15T04:10:07;18.40;74.50
18809;DHT22;9532;54.322;10.116;2022-11-15T04:12:37;18.30;74.40
18809;DHT22;9532;54.322;10.116;2022-11-15T04:15:08;18.40;75.30
18809;DHT22;9532;54.322;10.116;2022-11-15T04:17:40;18.30;74.40
18809;DHT22;9532;54.322;10.116;2022-11-15T04:20:12;18.30;74.30
18809;DHT22;9532;54.322;10.116;2022-11-15T04:22:58;18.30;74.40
18809;DHT22;9532;54.322;10.116;2022-11-15T04:25:43;18.30;74.30
18809;DHT22;9532;54.322;10.116;2022-11-15T04:28:11;18.30;74.30
18809;DHT22;9532;54.322;10.116;2022-11-15T04:30:38;18.30;74.30
18809;DHT22;9532;54.322;10.116;2022-11-15T04:33:05;18.30;74.30
18809;DHT22;9532;54.322;10.116;2022-11-15T04:35:34;18.30;74.30
18809;DHT22;9532;54.322;10.116;2022-11-15T04:38:02;18.30;74.30
18809;DHT22;9532;54.322;10.116;2022-11-15T04:40:30;18.30;74.30
18809;DHT22;9532;54.322;10.116;2022-11-15T04:42:57;18.30;74.30
18809;DHT22;9532;54.322;10.116;2022-11-15T04:45:24;18.30;74.30
18809;DHT22;9532;54.322;10.116;2022-11-15T04:47:51;18.30;74.30
18809;DHT22;9532;54.322;10.116;2022-11-15T04:50:18;18.30;74.30
18809;DHT22;9532;54.322;10.116;2022-11-15T04:52:52;18.30;74.30
18809;DHT22;9532;54.322;10.116;2022-11-15T04:55:20;18.30;74.30
18809;DHT22;9532;54.322;10.116;2022-11-15T04:57:48;18.30;74.30
18809;DHT22;9532;54.322;10.116;2022-11-15T05:00:23;18.30;74.30
18809;DHT22;9532;54.322;10.116;2022-11-15T05:02:51;18.30;74.30
18809;DHT22;9532;54.322;10.116;2022-11-15T05:05:35;18.30;74.30
18809;DHT22;9532;54.322;10.116;2022-11-15T05:08:04;18.30;74.30
18809;DHT22;9532;54.322;10.116;2022-11-15T05:10:31;18.30;74.30
18809;DHT22;9532;54.322;10.116;2022-11-15T05:12:58;18.30;74.30
18809;DHT22;9532;54.322;10.116;2022-11-15T05:15:25;18.30;74.30
18809;DHT22;9532;54.322;10.116;2022-11-15T05:17:57;18.30;74.30
18809;DHT22;9532;54.322;10.116;2022-11-15T05:20:24;18.30;74.30
18809;DHT22;9532;54.322;10.116;2022-11-15T05:22:52;18.30;74.30
18809;DHT22;9532;54.322;10.116;2022-11-15T05:25:21;18.20;74.20
18809;DHT22;9532;54.322;10.116;2022-11-15T05:27:48;18.30;74.20
18809;DHT22;9532;54.322;10.116;2022-11-15T05:30:15;18.30;74.30
18809;DHT22;9532;54.322;10.116;2022-11-15T05:32:42;18.20;74.30
18809;DHT22;9532;54.322;10.116;2022-11-15T05:35:13;18.30;74.40
18809;DHT22;9532;54.322;10.116;2022-11-15T05:37:43;18.30;74.30
18809;DHT22;9532;54.322;10.116;2022-11-15T05:40:10;18.30;74.30
18809;DHT22;9532;54.322;10.116;2022-11-15T05:42:39;18.30;74.30
18809;DHT22;9532;54.322;10.116;2022-11-15T05:45:06;18.20;74.30
18809;DHT22;9532;54.322;10.116;2022-11-15T05:47:36;18.30;74.30
18809;DHT22;9532;54.322;10.116;2022-11-15T05:50:06;18.20;74.20
18809;DHT22;9532;54.322;10.116;2022-11-15T05:52:35;18.20;74.30
18809;DHT22;9532;54.322;10.116;2022-11-15T05:55:04;18.20;74.20
18809;DHT22;9532;54.322;10.116;2022-11-15T05:57:33;18.20;74.20
18809;DHT22;9532;54.322;10.116;2022-11-15T06:00:03;18.20;74.20
18809;DHT22;9532;54.322;10.116;2022-11-15T06:02:30;18.20;74.20
18809;DHT22;9532;54.322;10.116;2022-11-15T06:04:57;18.20;74.20
18809;DHT22;9532;54.322;10.116;2022-11-15T06:07:24;18.20;74.10
18809;DHT22;9532;54.322;10.116;2022-11-15T06:09:51;18.20;74.10
18809;DHT22;9532;54.322;10.116;2022-11-15T06:12:18;18.20;74.20
18809;DHT22;9532;54.322;10.116;2022-11-15T06:14:45;18.20;74.10
18809;DHT22;9532;54.322;10.116;2022-11-15T06:17:14;18.20;74.10
18809;DHT22;9532;54.322;10.116;2022-11-15T06:19:41;18.20;74.10
18809;DHT22;9532;54.322;10.116;2022-11-15T06:22:08;18.20;74.10
18809;DHT22;9532;54.322;10.116;2022-11-15T06:24:35;18.20;74.10
18809;DHT22;9532;54.322;10.116;2022-11-15T06:27:02;18.20;74.10
18809;DHT22;9532;54.322;10.116;2022-11-15T06:29:29;18.20;74.10
18809;DHT22;9532;54.322;10.116;2022-11-15T06:32:07;18.20;74.10
18809;DHT22;9532;54.322;10.116;2022-11-15T06:34:36;18.20;74.10
18809;DHT22;9532;54.322;10.116;2022-11-15T06:37:03;18.20;74.00
18809;DHT22;9532;54.322;10.116;2022-11-15T06:39:30;18.20;74.00
18809;DHT22;9532;54.322;10.116;2022-11-15T06:41:57;18.20;74.00
18809;DHT22;9532;54.322;10.116;2022-11-15T06:44:24;18.10;74.00
18809;DHT22;9532;54.322;10.116;2022-11-15T06:46:51;18.20;74.00
18809;DHT22;9532;54.322;10.116;2022-11-15T06:49:18;18.20;74.10
18809;DHT22;9532;54.322;10.116;2022-11-15T06:51:47;18.10;74.00
18809;DHT22;9532;54.322;10.116;2022-11-15T06:54:15;18.20;74.10
18809;DHT22;9532;54.322;10.116;2022-11-15T06:56:42;18.10;74.00
18809;DHT22;9532;54.322;10.116;2022-11-15T06:59:09;18.10;74.00
18809;DHT22;9532;54.322;10.116;2022-11-15T07:01:36;18.00;70.30
18809;DHT22;9532;54.322;10.116;2022-11-15T07:04:04;17.50;63.60
18809;DHT22;9532;54.322;10.116;2022-11-15T07:06:31;17.20;60.40
18809;DHT22;9532;54.322;10.116;2022-11-15T07:09:02;16.80;63.40
18809;DHT22;9532;54.322;10.116;2022-11-15T07:11:29;16.80;66.00
18809;DHT22;9532;54.322;10.116;2022-11-15T07:13:56;17.00;68.00
18809;DHT22;9532;54.322;10.116;2022-11-15T07:16:23;17.20;68.70
18809;DHT22;9532;54.322;10.116;2022-11-15T07:18:51;17.30;69.30
18809;DHT22;9532;54.322;10.116;2022-11-15T07:21:18;17.40;69.60
18809;DHT22;9532;54.322;10.116;2022-11-15T07:23:46;17.50;69.80
18809;DHT22;9532;54.322;10.116;2022-11-15T07:26:15;17.70;70.30
18809;DHT22;9532;54.322;10.116;2022-11-15T07:28:42;17.90;70.20
18809;DHT22;9532;54.322;10.116;2022-11-15T07:31:09;18.00;70.20
18809;DHT22;9532;54.322;10.116;2022-11-15T07:33:37;18.10;70.40
18809;DHT22;9532;54.322;10.116;2022-11-15T07:36:05;18.10;70.70
18809;DHT22;9532;54.322;10.116;2022-11-15T07:38:34;18.20;71.50
18809;DHT22;9532;54.322;10.116;2022-11-15T07:41:03;18.30;70.80
18809;DHT22;9532;54.322;10.116;2022-11-15T07:43:32;18.40;70.90
18809;DHT22;9532;54.322;10.116;2022-11-15T07:46:05;18.40;70.80
18809;DHT22;9532;54.322;10.116;2022-11-15T07:48:34;18.50;70.70
18809;DHT22;9532;54.322;10.116;2022-11-15T07:51:02;18.50;70.60
18809;DHT22;9532;54.322;10.116;2022-11-15T07:53:29;18.60;70.50
18809;DHT22;9532;54.322;10.116;2022-11-15T07:55:56;18.60;70.60
18809;DHT22;9532;54.322;10.116;2022-11-15T07:58:24;18.60;70.50
18809;DHT22;9532;54.322;10.116;2022-11-15T08:00:53;18.70;70.70
18809;DHT22;9532;54.322;10.116;2022-11-15T08:03:20;18.80;70.60
18809;DHT22;9532;54.322;10.116;2022-11-15T08:05:50;18.90;70.70
18809;DHT22;9532;54.322;10.116;2022-11-15T08:08:18;18.90;70.70
18809;DHT22;9532;54.322;10.116;2022-11-15T08:10:46;19.00;70.80
18809;DHT22;9532;54.322;10.116;2022-11-15T08:13:14;19.00;70.90
18809;DHT22;9532;54.322;10.116;2022-11-15T08:15:41;19.00;70.90
18809;DHT22;9532;54.322;10.116;2022-11-15T08:18:12;19.10;71.10
18809;DHT22;9532;54.322;10.116;2022-11-15T08:20:40;19.10;71.00
18809;DHT22;9532;54.322;10.116;2022-11-15T08:23:10;19.20;71.20
18809;DHT22;9532;54.322;10.116;2022-11-15T08:25:37;19.20;71.30
18809;DHT22;9532;54.322;10.116;2022-11-15T08:28:06;19.20;72.70
18809;DHT22;9532;54.322;10.116;2022-11-15T08:30:36;19.20;71.60
18809;DHT22;9532;54.322;10.116;2022-11-15T08:33:04;19.30;71.60
18809;DHT22;9532;54.322;10.116;2022-11-15T08:35:33;19.30;71.40
18809;DHT22;9532;54.322;10.116;2022-11-15T08:38:00;19.40;71.40
18809;DHT22;9532;54.322;10.116;2022-11-15T08:40:27;19.40;71.20
18809;DHT22;9532;54.322;10.116;2022-11-15T08:42:54;19.50;71.20
18809;DHT22;9532;54.322;10.116;2022-11-15T08:45:24;19.50;71.10
18809;DHT22;9532;54.322;10.116;2022-11-15T08:47:51;19.60;70.90
18809;DHT22;9532;54.322;10.116;2022-11-15T08:50:19;19.60;70.70
18809;DHT22;9532;54.322;10.116;2022-11-15T08:52:48;19.70;70.50
18809;DHT22;9532;54.322;10.116;2022-11-15T08:55:15;19.70;70.60
18809;DHT22;9532;54.322;10.116;2022-11-15T08:57:42;19.70;70.70
18809;DHT22;9532;54.322;10.116;2022-11-15T09:00:11;19.60;70.90
18809;DHT22;9532;54.322;10.116;2022-11-15T09:02:38;19.60;71.40
18809;DHT22;9532;54.322;10.116;2022-11-15T09:05:07;19.60;71.80
18809;DHT22;9532;54.322;10.116;2022-11-15T09:07:35;19.50;71.80
18809;DHT22;9532;54.322;10.116;2022-11-15T09:10:04;19.50;72.10
18809;DHT22;9532;54.322;10.116;2022-11-15T09:12:31;19.50;72.20
18809;DHT22;9532;54.322;10.116;2022-11-15T09:14:59;19.50;72.30
18809;DHT22;9532;54.322;10.116;2022-11-15T09:17:26;19.50;72.30
18809;DHT22;9532;54.322;10.116;2022-11-15T09:19:53;19.50;72.50
18809;DHT22;9532;54.322;10.116;2022-11-15T09:22:20;19.50;72.80
18809;DHT22;9532;54.322;10.116;2022-11-15T09:24:47;19.50;72.90
18809;DHT22;9532;54.322;10.116;2022-11-15T09:27:16;19.50;73.00
18809;DHT22;9532;54.322;10.116;2022-11-15T09:29:43;19.50;72.80
18809;DHT22;9532;54.322;10.116;2022-11-15T09:32:11;19.50;72.80
18809;DHT22;9532;54.322;10.116;2022-11-15T09:34:38;19.50;72.60
18809;DHT22;9532;54.322;10.116;2022-11-15T09:37:05;19.50;72.50
18809;DHT22;9532;54.322;10.116;2022-11-15T09:39:33;19.60;72.50
18809;DHT22;9532;54.322;10.116;2022-11-15T09:42:15;19.60;72.50
18809;DHT22;9532;54.322;10.116;2022-11-15T09:44:56;19.60;72.60
18809;DHT22;9532;54.322;10.116;2022-11-15T09:47:45;19.60;72.60
18809;DHT22;9532;54.322;10.116;2022-11-15T09:50:17;19.60;72.60
18809;DHT22;9532;54.322;10.116;2022-11-15T09:52:48;19.60;72.60
18809;DHT22;9532;54.322;10.116;2022-11-15T09:55:16;19.60;72.50
18809;DHT22;9532;54.322;10.116;2022-11-15T09:57:53;19.70;72.60
18809;DHT22;9532;54.322;10.116;2022-11-15T10:00:28;19.60;72.60
18809;DHT22;9532;54.322;10.116;2022-11-15T10:03:10;19.70;72.60
18809;DHT22;9532;54.322;10.116;2022-11-15T10:05:40;19.70;72.60
18809;DHT22;9532;54.322;10.116;2022-11-15T10:08:19;19.70;72.60
18809;DHT22;9532;54.322;10.116;2022-11-15T10:10:53;19.70;72.60
18809;DHT22;9532;54.322;10.116;2022-11-15T10:13:24;19.70;72.60
18809;DHT22;9532;54.322;10.116;2022-11-15T10:15:57;19.80;72.50
18809;DHT22;9532;54.322;10.116;2022-11-15T10:18:32;19.80;72.50
18809;DHT22;9532;54.322;10.116;2022-11-15T10:21:09;19.80;72.60
18809;DHT22;9532;54.322;10.116;2022-11-15T10:23:39;19.90;72.80
18809;DHT22;9532;54.322;10.116;2022-11-15T10:26:09;19.80;72.80
18809;DHT22;9532;54.322;10.116;2022-11-15T10:28:37;19.80;72.90
18809;DHT22;9532;54.322;10.116;2022-11-15T10:31:22;19.80;72.90
18809;DHT22;9532;54.322;10.116;2022-11-15T10:33:49;19.90;72.80
18809;DHT22;9532;54.322;10.116;2022-11-15T10:36:22;19.90;72.80
18809;DHT22;9532;54.322;10.116;2022-11-15T10:38:53;19.90;72.70
18809;DHT22;9532;54.322;10.116;2022-11-15T10:41:22;20.00;72.80
18809;DHT22;9532;54.322;10.116;2022-11-15T10:44:11;20.00;71.40
18809;DHT22;9532;54.322;10.116;2022-11-15T10:46:41;19.90;70.70
18809;DHT22;9532;54.322;10.116;2022-11-15T10:49:13;19.80;70.50
18809;DHT22;9532;54.322;10.116;2022-11-15T10:51:44;19.80;70.90
18809;DHT22;9532;54.322;10.116;2022-11-15T10:54:12;19.70;71.20
18809;DHT22;9532;54.322;10.116;2022-11-15T10:56:42;19.70;71.30
18809;DHT22;9532;54.322;10.116;2022-11-15T10:59:18;19.70;71.30
18809;DHT22;9532;54.322;10.116;2022-11-15T11:01:49;19.70;71.30
18809;DHT22;9532;54.322;10.116;2022-11-15T11:04:16;19.70;71.40
18809;DHT22;9532;54.322;10.116;2022-11-15T11:06:49;19.60;71.40
18809;DHT22;9532;54.322;10.116;2022-11-15T11:09:25;19.60;71.60
18809;DHT22;9532;54.322;10.116;2022-11-15T11:11:54;19.70;71.70
18809;DHT22;9532;54.322;10.116;2022-11-15T11:14:23;19.60;71.70
18809;DHT22;9532;54.322;10.116;2022-11-15T11:16:57;19.60;71.80
18809;DHT22;9532;54.322;10.116;2022-11-15T11:19:49;19.60;71.40
18809;DHT22;9532;54.322;10.116;2022-11-15T11:22:23;19.60;71.00
18809;DHT22;9532;54.322;10.116;2022-11-15T11:25:02;19.60;71.20
18809;DHT22;9532;54.322;10.116;2022-11-15T11:27:39;19.60;71.80
18809;DHT22;9532;54.322;10.116;2022-11-15T11:30:13;19.60;71.60
18809;DHT22;9532;54.322;10.116;2022-11-15T11:33:02;19.60;71.80
18809;DHT22;9532;54.322;10.116;2022-11-15T11:35:35;19.60;71.80
18809;DHT22;9532;54.322;10.116;2022-11-15T11:38:24;19.60;71.90
18809;DHT22;9532;54.322;10.116;2022-11-15T11:41:04;19.70;72.00
18809;DHT22;9532;54.322;10.116;2022-11-15T11:43:44;19.70;72.10
18809;DHT22;9532;54.322;10.116;2022-11-15T11:46:37;19.70;72.90
18809;DHT22;9532;54.322;10.116;2022-11-15T11:49:11;19.70;72.30
18809;DHT22;9532;54.322;10.116;2022-11-15T11:51:43;19.70;72.20
18809;DHT22;9532;54.322;10.116;2022-11-15T11:54:17;19.70;72.20
18809;DHT22;9532;54.322;10.116;2022-11-15T11:56:46;19.70;72.20
18809;DHT22;9532;54.322;10.116;2022-11-15T11:59:23;19.70;72.30
18809;DHT22;9532;54.322;10.116;2022-11-15T12:01:52;19.80;72.20
18809;DHT22;9532;54.322;10.116;2022-11-15T12:04:27;19.80;75.80
18809;DHT22;9532;54.322;10.116;2022-11-15T12:06:59;19.80;75.80
18809;DHT22;9532;54.322;10.116;2022-11-15T12:09:32;19.80;76.20
18809;DHT22;9532;54.322;10.116;2022-11-15T12:12:07;19.80;75.60
18809;DHT22;9532;54.322;10.116;2022-11-15T12:14:40;19.80;75.90
18809;DHT22;9532;54.322;10.116;2022-11-15T12:17:10;19.90;75.50
18809;DHT22;9532;54.322;10.116;2022-11-15T12:19:39;19.90;75.10
18809;DHT22;9532;54.322;10.116;2022-11-15T12:22:12;19.80;74.60
18809;DHT22;9532;54.322;10.116;2022-11-15T12:24:48;19.80;74.70
18809;DHT22;9532;54.322;10.116;2022-11-15T12:27:19;19.90;74.50
18809;DHT22;9532;54.322;10.116;2022-11-15T12:29:51;19.90;74.20
18809;DHT22;9532;54.322;10.116;2022-11-15T12:32:26;19.80;74.20
18809;DHT22;9532;54.322;10.116;2022-11-15T12:34:55;19.80;73.80
18809;DHT22;9532;54.322;10.116;2022-11-15T12:40:34;19.70;73.90
18809;DHT22;9532;54.322;10.116;2022-11-15T12:46:04;19.80;73.90
18809;DHT22;9532;54.322;10.116;2022-11-15T12:48:57;19.80;74.10
18809;DHT22;9532;54.322;10.116;2022-11-15T12:52:06;19.70;74.20
18809;DHT22;9532;54.322;10.116;2022-11-15T12:55:01;19.70;74.20
18809;DHT22;9532;54.322;10.116;2022-11-15T12:57:35;19.70;74.30
18809;DHT22;9532;54.322;10.116;2022-11-15T13:03:28;19.60;74.50
18809;DHT22;9532;54.322;10.116;2022-11-15T13:09:01;19.60;74.60
18809;DHT22;9532;54.322;10.116;2022-11-15T13:14:58;19.60;74.50
18809;DHT22;9532;54.322;10.116;2022-11-15T13:17:31;19.60;74.80
18809;DHT22;9532;54.322;10.116;2022-11-15T13:22:44;19.60;75.00
18809;DHT22;9532;54.322;10.116;2022-11-15T13:25:46;19.60;74.90
18809;DHT22;9532;54.322;10.116;2022-11-15T13:28:26;19.50;75.00
18809;DHT22;9532;54.322;10.116;2022-11-15T13:30:56;19.60;75.20
18809;DHT22;9532;54.322;10.116;2022-11-15T13:33:28;19.50;74.50
18809;DHT22;9532;54.322;10.116;2022-11-15T13:35:58;19.50;74.30
18809;DHT22;9532;54.322;10.116;2022-11-15T13:38:28;19.40;74.90
18809;DHT22;9532;54.322;10.116;2022-11-15T13:40:59;19.50;75.00
18809;DHT22;9532;54.322;10.116;2022-11-15T13:43:31;19.40;75.00
18809;DHT22;9532;54.322;10.116;2022-11-15T13:46:11;19.40;75.00
18809;DHT22;9532;54.322;10.116;2022-11-15T13:48:40;19.40;75.10
18809;DHT22;9532;54.322;10.116;2022-11-15T13:51:15;19.40;74.80
18809;DHT22;9532;54.322;10.116;2022-11-15T13:53:47;19.30;75.00
18809;DHT22;9532;54.322;10.116;2022-11-15T13:56:17;19.30;75.00
18809;DHT22;9532;54.322;10.116;2022-11-15T13:58:45;19.30;74.80
18809;DHT22;9532;54.322;10.116;2022-11-15T14:01:16;19.30;75.20
18809;DHT22;9532;54.322;10.116;2022-11-15T14:03:52;19.30;75.20
18809;DHT22;9532;54.322;10.116;2022-11-15T14:06:22;19.30;75.40
18809;DHT22;9532;54.322;10.116;2022-11-15T14:11:52;19.30;75.20
18809;DHT22;9532;54.322;10.116;2022-11-15T14:14:21;19.30;74.90
18809;DHT22;9532;54.322;10.116;2022-11-15T14:16:50;19.30;74.70
18809;DHT22;9532;54.322;10.116;2022-11-15T14:19:37;19.30;74.70
18809;DHT22;9532;54.322;10.116;2022-11-15T14:22:14;19.20;74.60
18809;DHT22;9532;54.322;10.116;2022-11-15T14:24:43;19.30;74.80
18809;DHT22;9532;54.322;10.116;2022-11-15T14:27:21;19.20;74.50
18809;DHT22;9532;54.322;10.116;2022-11-15T14:29:49;19.20;74.70
18809;DHT22;9532;54.322;10.116;2022-11-15T14:32:18;19.20;75.10
18809;DHT22;9532;54.322;10.116;2022-11-15T14:34:45;19.20;75.10
18809;DHT22;9532;54.322;10.116;2022-11-15T14:37:20;19.20;74.90
18809;DHT22;9532;54.322;10.116;2022-11-15T14:39:48;19.20;75.00
18809;DHT22;9532;54.322;10.116;2022-11-15T14:42:15;19.20;74.90
18809;DHT22;9532;54.322;10.116;2022-11-15T14:44:44;19.20;74.90
18809;DHT22;9532;54.322;10.116;2022-11-15T14:47:12;19.20;75.00
18809;DHT22;9532;54.322;10.116;2022-11-15T14:49:39;19.20;75.20
18809;DHT22;9532;54.322;10.116;2022-11-15T14:52:23;19.20;75.60
18809;DHT22;9532;54.322;10.116;2022-11-15T14:54:51;19.20;75.50
18809;DHT22;9532;54.322;10.116;2022-11-15T14:57:18;19.20;75.60
18809;DHT22;9532;54.322;10.116;2022-11-15T14:59:47;19.20;75.70
18809;DHT22;9532;54.322;10.116;2022-11-15T15:02:18;19.20;75.70
18809;DHT22;9532;54.322;10.116;2022-11-15T15:04:45;19.20;75.40
18809;DHT22;9532;54.322;10.116;2022-11-15T15:07:13;19.20;75.40
18809;DHT22;9532;54.322;10.116;2022-11-15T15:09:41;19.20;75.80
18809;DHT22;9532;54.322;10.116;2022-11-15T15:12:15;19.20;75.60
18809;DHT22;9532;54.322;10.116;2022-11-15T15:14:43;19.20;75.40
18809;DHT22;9532;54.322;10.116;2022-11-15T15:17:12;19.20;75.70
18809;DHT22;9532;54.322;10.116;2022-11-15T15:19:39;19.20;76.10
18809;DHT22;9532;54.322;10.116;2022-11-15T15:22:11;19.20;76.10
18809;DHT22;9532;54.322;10.116;2022-11-15T15:24:41;19.20;75.80
18809;DHT22;9532;54.322;10.116;2022-11-15T15:27:08;19.20;76.00
18809;DHT22;9532;54.322;10.116;2022-11-15T15:29:36;19.20;75.90
18809;DHT22;9532;54.322;10.116;2022-11-15T15:32:04;19.20;76.20
18809;DHT22;9532;54.322;10.116;2022-11-15T15:34:33;19.20;76.30
18809;DHT22;9532;54.322;10.116;2022-11-15T15:37:07;19.20;75.70
18809;DHT22;9532;54.322;10.116;2022-11-15T15:39:36;19.10;75.70
18809;DHT22;9532;54.322;10.116;2022-11-15T15:42:04;19.20;75.80
18809;DHT22;9532;54.322;10.116;2022-11-15T15:44:31;19.10;75.70
18809;DHT22;9532;54.322;10.116;2022-11-15T15:46:58;19.10;76.00
18809;DHT22;9532;54.322;10.116;2022-11-15T15:49:25;19.10;76.70
18809;DHT22;9532;54.322;10.116;2022-11-15T15:51:54;19.10;76.50
18809;DHT22;9532;54.322;10.116;2022-11-15T15:54:21;19.10;76.30
18809;DHT22;9532;54.322;10.116;2022-11-15T15:56:49;19.10;76.60
18809;DHT22;9532;54.322;10.116;2022-11-15T15:59:16;19.20;76.60
18809;DHT22;9532;54.322;10.116;2022-11-15T16:01:43;19.10;75.90
18809;DHT22;9532;54.322;10.116;2022-11-15T16:04:11;19.10;76.40
18809;DHT22;9532;54.322;10.116;2022-11-15T16:06:39;19.10;76.30
18809;DHT22;9532;54.322;10.116;2022-11-15T16:09:13;19.20;76.30
18809;DHT22;9532;54.322;10.116;2022-11-15T16:11:41;19.10;76.40
18809;DHT22;9532;54.322;10.116;2022-11-15T16:14:08;19.10;76.30
18809;DHT22;9532;54.322;10.116;2022-11-15T16:16:36;19.10;76.40
18809;DHT22;9532;54.322;10.116;2022-11-15T16:19:04;19.10;76.20